sensor_id;sensor_type;location;lat;lon;timestamp;P1;durP1;ratioP1;P2;durP2;ratioP2
16824;SDS011;8529;48.108;-1.706;2023-07-20T00:00:08;6.13;;;2.65;;
16824;SDS011;8529;48.108;-1.706;2023-07-20T00:02:37;3.00;;;2.20;;
16824;SDS011;8529;48.108;-1.706;2023-07-20T00:05:04;5.32;;;2.40;;
16824;SDS011;8529;48.108;-1.706;2023-07-20T00:07:33;4.22;;;2.75;;
16824;SDS011;8529;48.108;-1.706;2023-07-20T00:10:00;6.35;;;3.00;;
16824;SDS011;8529;48.108;-1.706;2023-07-20T00:12:27;3.13;;;2.00;;
16824;SDS011;8529;48.108;-1.706;2023-07-20T00:14:54;6.82;;;3.42;;
16824;SDS011;8529;48.108;-1.706;2023-07-20T00:17:21;6.70;;;2.60;;
16824;SDS011;8529;48.108;-1.706;2023-07-20T00:19:48;10.90;;;2.67;;
16824;SDS011;8529;48.108;-1.706;2023-07-20T00:22:15;5.65;;;2.90;;
16824;SDS011;8529;48.108;-1.706;2023-07-20T00:24:43;5.95;;;2.85;;
16824;SDS011;8529;48.108;-1.706;2023-07-20T00:27:10;5.55;;;2.70;;
16824;SDS011;8529;48.108;-1.706;2023-07-20T00:29:36;3.85;;;2.72;;
16824;SDS011;8529;48.108;-1.706;2023-07-20T00:32:04;5.75;;;2.65;;
16824;SDS011;8529;48.108;-1.706;2023-07-20T00:34:31;4.63;;;2.42;;
16824;SDS011;8529;48.108;-1.706;2023-07-20T00:36:58;5.72;;;2.50;;
16824;SDS011;8529;48.108;-1.706;2023-07-20T00:39:25;4.35;;;2.80;;
16824;SDS011;8529;48.108;-1.706;2023-07-20T00:41:53;5.38;;;2.30;;
16824;SDS011;8529;48.108;-1.706;2023-07-20T00:44:20;4.82;;;2.42;;
16824;SDS011;8529;48.108;-1.706;2023-07-20T00:46:47;7.20;;;2.97;;
16824;SDS011;8529;48.108;-1.706;2023-07-20T00:49:14;4.97;;;2.90;;
16824;SDS011;8529;48.108;-1.706;2023-07-20T00:51:46;8.02;;;2.88;;
16824;SDS011;8529;48.108;-1.706;2023-07-20T00:54:14;5.30;;;2.70;;
16824;SDS011;8529;48.108;-1.706;2023-07-20T00:56:41;4.13;;;2.78;;
16824;SDS011;8529;48.108;-1.706;2023-07-20T00:59:11;5.57;;;2.83;;
16824;SDS011;8529;48.108;-1.706;2023-07-20T01:01:38;5.78;;;2.72;;
16824;SDS011;8529;48.108;-1.706;2023-07-20T01:04:04;5.15;;;3.10;;
16824;SDS011;8529;48.108;-1.706;2023-07-20T01:06:34;4.97;;;2.60;;
16824;SDS011;8529;48.108;-1.706;2023-07-20T01:09:08;5.90;;;3.25;;
16824;SDS011;8529;48.108;-1.706;2023-07-20T01:11:42;5.50;;;2.55;;
16824;SDS011;8529;48.108;-1.706;2023-07-20T01:14:17;7.15;;;3.33;;
16824;SDS011;8529;48.108;-1.706;2023-07-20T01:16:44;5.35;;;2.90;;
16824;SDS011;8529;48.108;-1.706;2023-07-20T01:19:12;5.72;;;2.67;;
16824;SDS011;8529;48.108;-1.706;2023-07-20T01:21:42;6.60;;;3.20;;
16824;SDS011;8529;48.108;-1.706;2023-07-20T01:27:23;4.20;;;3.17;;
16824;SDS011;8529;48.108;-1.706;2023-07-20T01:30:11;5.38;;;3.03;;
16824;SDS011;8529;48.108;-1.706;2023-07-20T01:32:48;5.55;;;3.30;;
16824;SDS011;8529;48.108;-1.706;2023-07-20T01:35:16;6.40;;;3.00;;
16824;SDS011;8529;48.108;-1.706;2023-07-20T01:37:46;7.57;;;3.50;;
16824;SDS011;8529;48.108;-1.706;2023-07-20T01:40:14;4.85;;;3.63;;
16824;SDS011;8529;48.108;-1.706;2023-07-20T01:42:43;4.45;;;2.65;;
16824;SDS011;8529;48.108;-1.706;2023-07-20T01:45:12;3.65;;;2.90;;
16824;SDS011;8529;48.108;-1.706;2023-07-20T01:47:39;4.43;;;3.03;;
16824;SDS011;8529;48.108;-1.706;2023-07-20T01:50:08;5.82;;;3.15;;
16824;SDS011;8529;48.108;-1.706;2023-07-20T01:52:35;6.65;;;3.20;;
16824;SDS011;8529;48.108;-1.706;2023-07-20T01:55:02;7.28;;;3.20;;
16824;SDS011;8529;48.108;-1.706;2023-07-20T01:57:29;6.88;;;3.55;;
16824;SDS011;8529;48.108;-1.706;2023-07-20T01:59:56;5.55;;;3.50;;
16824;SDS011;8529;48.108;-1.706;2023-07-20T02:02:25;3.92;;;3.53;;
16824;SDS011;8529;48.108;-1.706;2023-07-20T02:04:53;5.38;;;3.58;;
16824;SDS011;8529;48.108;-1.706;2023-07-20T02:07:22;5.43;;;3.60;;
16824;SDS011;8529;48.108;-1.706;2023-07-20T02:09:49;6.90;;;3.38;;
16824;SDS011;8529;48.108;-1.706;2023-07-20T02:12:16;9.45;;;3.63;;
16824;SDS011;8529;48.108;-1.706;2023-07-20T02:14:42;5.70;;;3.35;;
16824;SDS011;8529;48.108;-1.706;2023-07-20T02:17:09;5.07;;;3.38;;
16824;SDS011;8529;48.108;-1.706;2023-07-20T02:19:37;6.50;;;3.53;;
16824;SDS011;8529;48.108;-1.706;2023-07-20T02:22:04;7.82;;;3.67;;
16824;SDS011;8529;48.108;-1.706;2023-07-20T02:24:33;6.97;;;3.55;;
16824;SDS011;8529;48.108;-1.706;2023-07-20T02:27:00;5.75;;;3.47;;
16824;SDS011;8529;48.108;-1.706;2023-07-20T02:29:27;6.28;;;3.28;;
16824;SDS011;8529;48.108;-1.706;2023-07-20T02:31:54;4.57;;;3.15;;
16824;SDS011;8529;48.108;-1.706;2023-07-20T02:34:20;4.05;;;2.85;;
16824;SDS011;8529;48.108;-1.706;2023-07-20T02:36:47;6.47;;;3.45;;
16824;SDS011;8529;48.108;-1.706;2023-07-20T02:39:14;7.65;;;3.33;;
16824;SDS011;8529;48.108;-1.706;2023-07-20T02:41:42;6.10;;;3.67;;
16824;SDS011;8529;48.108;-1.706;2023-07-20T02:44:09;9.02;;;3.65;;
16824;SDS011;8529;48.108;-1.706;2023-07-20T02:46:36;6.35;;;3.35;;
16824;SDS011;8529;48.108;-1.706;2023-07-20T02:49:03;10.55;;;3.85;;
16824;SDS011;8529;48.108;-1.706;2023-07-20T02:51:30;9.77;;;4.10;;
16824;SDS011;8529;48.108;-1.706;2023-07-20T02:53:57;8.10;;;4.03;;
16824;SDS011;8529;48.108;-1.706;2023-07-20T02:56:24;8.85;;;4.13;;
16824;SDS011;8529;48.108;-1.706;2023-07-20T02:58:52;5.80;;;3.83;;
16824;SDS011;8529;48.108;-1.706;2023-07-20T03:01:19;5.10;;;3.75;;
16824;SDS011;8529;48.108;-1.706;2023-07-20T03:03:46;7.13;;;4.03;;
16824;SDS011;8529;48.108;-1.706;2023-07-20T03:06:13;7.32;;;4.18;;
16824;SDS011;8529;48.108;-1.706;2023-07-20T03:08:40;7.38;;;3.80;;
16824;SDS011;8529;48.108;-1.706;2023-07-20T03:11:12;6.78;;;4.05;;
16824;SDS011;8529;48.108;-1.706;2023-07-20T03:13:40;7.18;;;3.97;;
16824;SDS011;8529;48.108;-1.706;2023-07-20T03:16:08;8.40;;;4.40;;
16824;SDS011;8529;48.108;-1.706;2023-07-20T03:18:36;5.45;;;3.80;;
16824;SDS011;8529;48.108;-1.706;2023-07-20T03:21:03;7.15;;;4.57;;
16824;SDS011;8529;48.108;-1.706;2023-07-20T03:23:30;8.40;;;4.45;;
16824;SDS011;8529;48.108;-1.706;2023-07-20T03:25:57;6.65;;;4.20;;
16824;SDS011;8529;48.108;-1.706;2023-07-20T03:28:24;9.10;;;5.05;;
16824;SDS011;8529;48.108;-1.706;2023-07-20T03:30:52;7.82;;;4.82;;
16824;SDS011;8529;48.108;-1.706;2023-07-20T03:33:22;8.30;;;4.32;;
16824;SDS011;8529;48.108;-1.706;2023-07-20T03:35:49;9.00;;;5.20;;
16824;SDS011;8529;48.108;-1.706;2023-07-20T03:38:15;6.55;;;4.30;;
16824;SDS011;8529;48.108;-1.706;2023-07-20T03:40:48;8.32;;;4.18;;
16824;SDS011;8529;48.108;-1.706;2023-07-20T03:43:16;8.80;;;4.60;;
16824;SDS011;8529;48.108;-1.706;2023-07-20T03:45:43;5.60;;;3.90;;
16824;SDS011;8529;48.108;-1.706;2023-07-20T03:48:10;8.90;;;5.10;;
16824;SDS011;8529;48.108;-1.706;2023-07-20T03:50:38;6.00;;;4.05;;
16824;SDS011;8529;48.108;-1.706;2023-07-20T03:53:05;11.93;;;4.57;;
16824;SDS011;8529;48.108;-1.706;2023-07-20T03:55:32;8.07;;;4.68;;
16824;SDS011;8529;48.108;-1.706;2023-07-20T03:57:59;7.93;;;4.22;;
16824;SDS011;8529;48.108;-1.706;2023-07-20T04:00:26;9.02;;;4.65;;
16824;SDS011;8529;48.108;-1.706;2023-07-20T04:02:53;6.82;;;4.45;;
16824;SDS011;8529;48.108;-1.706;2023-07-20T04:05:20;5.97;;;3.70;;
16824;SDS011;8529;48.108;-1.706;2023-07-20T04:07:49;8.38;;;4.45;;
16824;SDS011;8529;48.108;-1.706;2023-07-20T04:10:16;6.70;;;4.47;;
16824;SDS011;8529;48.108;-1.706;2023-07-20T04:12:43;8.02;;;4.78;;
16824;SDS011;8529;48.108;-1.706;2023-07-20T04:15:12;9.18;;;4.70;;
16824;SDS011;8529;48.108;-1.706;2023-07-20T04:17:39;7.65;;;4.40;;
16824;SDS011;8529;48.108;-1.706;2023-07-20T04:20:06;9.40;;;4.57;;
16824;SDS011;8529;48.108;-1.706;2023-07-20T04:22:34;6.70;;;4.43;;
16824;SDS011;8529;48.108;-1.706;2023-07-20T04:25:03;7.35;;;4.70;;
16824;SDS011;8529;48.108;-1.706;2023-07-20T04:27:30;8.77;;;5.30;;
16824;SDS011;8529;48.108;-1.706;2023-07-20T04:29:58;13.35;;;5.13;;
16824;SDS011;8529;48.108;-1.706;2023-07-20T04:32:25;9.73;;;4.90;;
16824;SDS011;8529;48.108;-1.706;2023-07-20T04:34:52;9.18;;;4.85;;
16824;SDS011;8529;48.108;-1.706;2023-07-20T04:37:19;8.57;;;4.85;;
16824;SDS011;8529;48.108;-1.706;2023-07-20T04:39:46;7.53;;;4.93;;
16824;SDS011;8529;48.108;-1.706;2023-07-20T04:42:14;5.90;;;4.47;;
16824;SDS011;8529;48.108;-1.706;2023-07-20T04:44:41;5.10;;;4.28;;
16824;SDS011;8529;48.108;-1.706;2023-07-20T04:47:08;8.85;;;4.40;;
16824;SDS011;8529;48.108;-1.706;2023-07-20T04:49:35;10.13;;;4.53;;
16824;SDS011;8529;48.108;-1.706;2023-07-20T04:52:02;9.30;;;4.57;;
16824;SDS011;8529;48.108;-1.706;2023-07-20T04:54:30;7.03;;;4.32;;
16824;SDS011;8529;48.108;-1.706;2023-07-20T04:56:56;5.95;;;4.43;;
16824;SDS011;8529;48.108;-1.706;2023-07-20T04:59:25;9.85;;;5.15;;
16824;SDS011;8529;48.108;-1.706;2023-07-20T05:01:52;7.65;;;4.75;;
16824;SDS011;8529;48.108;-1.706;2023-07-20T05:04:19;14.40;;;5.43;;
16824;SDS011;8529;48.108;-1.706;2023-07-20T05:06:45;9.07;;;6.20;;
16824;SDS011;8529;48.108;-1.706;2023-07-20T05:09:12;9.45;;;5.63;;
16824;SDS011;8529;48.108;-1.706;2023-07-20T05:11:39;8.20;;;4.85;;
16824;SDS011;8529;48.108;-1.706;2023-07-20T05:14:06;7.03;;;4.80;;
16824;SDS011;8529;48.108;-1.706;2023-07-20T05:16:35;7.45;;;4.97;;
16824;SDS011;8529;48.108;-1.706;2023-07-20T05:19:02;10.10;;;5.15;;
16824;SDS011;8529;48.108;-1.706;2023-07-20T05:21:29;5.85;;;4.43;;
16824;SDS011;8529;48.108;-1.706;2023-07-20T05:23:55;11.70;;;5.50;;
16824;SDS011;8529;48.108;-1.706;2023-07-20T05:26:23;17.73;;;5.63;;
16824;SDS011;8529;48.108;-1.706;2023-07-20T05:28:50;7.72;;;4.78;;
16824;SDS011;8529;48.108;-1.706;2023-07-20T05:31:17;9.80;;;5.00;;
16824;SDS011;8529;48.108;-1.706;2023-07-20T05:33:45;12.80;;;4.90;;
16824;SDS011;8529;48.108;-1.706;2023-07-20T05:36:12;9.10;;;4.72;;
16824;SDS011;8529;48.108;-1.706;2023-07-20T05:38:39;10.98;;;5.93;;
16824;SDS011;8529;48.108;-1.706;2023-07-20T05:41:06;9.88;;;5.43;;
16824;SDS011;8529;48.108;-1.706;2023-07-20T05:43:35;7.25;;;4.55;;
16824;SDS011;8529;48.108;-1.706;2023-07-20T05:46:02;7.80;;;5.07;;
16824;SDS011;8529;48.108;-1.706;2023-07-20T05:48:30;7.82;;;4.85;;
16824;SDS011;8529;48.108;-1.706;2023-07-20T05:50:59;9.88;;;5.07;;
16824;SDS011;8529;48.108;-1.706;2023-07-20T05:53:26;8.70;;;5.13;;
16824;SDS011;8529;48.108;-1.706;2023-07-20T05:55:53;7.93;;;4.75;;
16824;SDS011;8529;48.108;-1.706;2023-07-20T05:58:19;8.95;;;5.07;;
16824;SDS011;8529;48.108;-1.706;2023-07-20T06:00:47;9.60;;;4.93;;
16824;SDS011;8529;48.108;-1.706;2023-07-20T06:03:14;10.73;;;4.88;;
16824;SDS011;8529;48.108;-1.706;2023-07-20T06:05:42;9.38;;;4.60;;
16824;SDS011;8529;48.108;-1.706;2023-07-20T06:08:10;9.32;;;5.05;;
16824;SDS011;8529;48.108;-1.706;2023-07-20T06:10:37;6.22;;;4.50;;
16824;SDS011;8529;48.108;-1.706;2023-07-20T06:13:04;8.27;;;5.40;;
16824;SDS011;8529;48.108;-1.706;2023-07-20T06:15:31;6.93;;;4.88;;
16824;SDS011;8529;48.108;-1.706;2023-07-20T06:18:00;6.03;;;4.57;;
16824;SDS011;8529;48.108;-1.706;2023-07-20T06:20:28;8.57;;;4.30;;
16824;SDS011;8529;48.108;-1.706;2023-07-20T06:22:55;10.05;;;4.47;;
16824;SDS011;8529;48.108;-1.706;2023-07-20T06:25:23;8.52;;;4.97;;
16824;SDS011;8529;48.108;-1.706;2023-07-20T06:27:50;10.05;;;4.72;;
16824;SDS011;8529;48.108;-1.706;2023-07-20T06:30:18;9.27;;;5.20;;
16824;SDS011;8529;48.108;-1.706;2023-07-20T06:32:45;5.82;;;4.70;;
16824;SDS011;8529;48.108;-1.706;2023-07-20T06:35:12;8.88;;;4.18;;
16824;SDS011;8529;48.108;-1.706;2023-07-20T06:37:39;8.13;;;4.28;;
16824;SDS011;8529;48.108;-1.706;2023-07-20T06:40:07;6.30;;;4.70;;
16824;SDS011;8529;48.108;-1.706;2023-07-20T06:42:36;6.45;;;3.65;;
16824;SDS011;8529;48.108;-1.706;2023-07-20T06:45:03;5.57;;;3.72;;
16824;SDS011;8529;48.108;-1.706;2023-07-20T06:47:31;6.75;;;3.80;;
16824;SDS011;8529;48.108;-1.706;2023-07-20T06:49:57;6.45;;;3.58;;
16824;SDS011;8529;48.108;-1.706;2023-07-20T06:52:24;6.72;;;3.92;;
16824;SDS011;8529;48.108;-1.706;2023-07-20T06:54:51;7.18;;;3.40;;
16824;SDS011;8529;48.108;-1.706;2023-07-20T06:57:18;7.60;;;3.53;;
16824;SDS011;8529;48.108;-1.706;2023-07-20T06:59:47;9.18;;;3.47;;
16824;SDS011;8529;48.108;-1.706;2023-07-20T07:02:13;6.03;;;3.55;;
16824;SDS011;8529;48.108;-1.706;2023-07-20T07:04:40;6.55;;;3.70;;
16824;SDS011;8529;48.108;-1.706;2023-07-20T07:07:08;5.32;;;3.45;;
16824;SDS011;8529;48.108;-1.706;2023-07-20T07:09:35;4.60;;;3.08;;
16824;SDS011;8529;48.108;-1.706;2023-07-20T07:12:02;5.03;;;3.13;;
16824;SDS011;8529;48.108;-1.706;2023-07-20T07:14:29;8.35;;;4.20;;
16824;SDS011;8529;48.108;-1.706;2023-07-20T07:16:57;6.55;;;3.38;;
16824;SDS011;8529;48.108;-1.706;2023-07-20T07:19:24;8.48;;;4.15;;
16824;SDS011;8529;48.108;-1.706;2023-07-20T07:21:51;8.57;;;4.22;;
16824;SDS011;8529;48.108;-1.706;2023-07-20T07:24:18;8.20;;;5.57;;
16824;SDS011;8529;48.108;-1.706;2023-07-20T07:26:45;6.70;;;4.97;;
16824;SDS011;8529;48.108;-1.706;2023-07-20T07:29:12;9.55;;;5.93;;
16824;SDS011;8529;48.108;-1.706;2023-07-20T07:31:39;9.60;;;6.47;;
16824;SDS011;8529;48.108;-1.706;2023-07-20T07:34:07;9.40;;;6.35;;
16824;SDS011;8529;48.108;-1.706;2023-07-20T07:36:34;8.35;;;5.50;;
16824;SDS011;8529;48.108;-1.706;2023-07-20T07:39:01;11.80;;;5.75;;
16824;SDS011;8529;48.108;-1.706;2023-07-20T07:41:29;9.50;;;5.05;;
16824;SDS011;8529;48.108;-1.706;2023-07-20T07:43:55;7.95;;;5.57;;
16824;SDS011;8529;48.108;-1.706;2023-07-20T07:46:23;6.78;;;5.18;;
16824;SDS011;8529;48.108;-1.706;2023-07-20T07:48:49;9.65;;;5.05;;
16824;SDS011;8529;48.108;-1.706;2023-07-20T07:51:18;8.23;;;4.38;;
16824;SDS011;8529;48.108;-1.706;2023-07-20T07:53:45;5.57;;;4.00;;
16824;SDS011;8529;48.108;-1.706;2023-07-20T07:56:14;6.18;;;3.92;;
16824;SDS011;8529;48.108;-1.706;2023-07-20T07:58:41;6.80;;;4.03;;
16824;SDS011;8529;48.108;-1.706;2023-07-20T08:01:08;6.38;;;3.65;;
16824;SDS011;8529;48.108;-1.706;2023-07-20T08:03:35;4.05;;;3.60;;
16824;SDS011;8529;48.108;-1.706;2023-07-20T08:06:02;5.78;;;4.18;;
16824;SDS011;8529;48.108;-1.706;2023-07-20T08:08:32;8.23;;;5.15;;
16824;SDS011;8529;48.108;-1.706;2023-07-20T08:10:58;21.02;;;11.02;;
16824;SDS011;8529;48.108;-1.706;2023-07-20T08:13:25;6.00;;;3.97;;
16824;SDS011;8529;48.108;-1.706;2023-07-20T08:15:52;7.32;;;4.15;;
16824;SDS011;8529;48.108;-1.706;2023-07-20T08:18:19;16.67;;;7.88;;
16824;SDS011;8529;48.108;-1.706;2023-07-20T08:20:46;9.20;;;5.78;;
16824;SDS011;8529;48.108;-1.706;2023-07-20T08:23:14;7.15;;;3.95;;
16824;SDS011;8529;48.108;-1.706;2023-07-20T08:25:43;6.75;;;3.58;;
16824;SDS011;8529;48.108;-1.706;2023-07-20T08:28:10;4.30;;;3.42;;
16824;SDS011;8529;48.108;-1.706;2023-07-20T08:30:40;4.85;;;3.55;;
16824;SDS011;8529;48.108;-1.706;2023-07-20T08:33:08;4.80;;;3.33;;
16824;SDS011;8529;48.108;-1.706;2023-07-20T08:35:36;6.90;;;3.65;;
16824;SDS011;8529;48.108;-1.706;2023-07-20T08:38:03;3.63;;;3.08;;
16824;SDS011;8529;48.108;-1.706;2023-07-20T08:40:30;4.25;;;3.33;;
16824;SDS011;8529;48.108;-1.706;2023-07-20T08:42:59;4.30;;;3.40;;
16824;SDS011;8529;48.108;-1.706;2023-07-20T08:45:27;5.05;;;3.25;;
16824;SDS011;8529;48.108;-1.706;2023-07-20T08:47:55;6.72;;;2.95;;
16824;SDS011;8529;48.108;-1.706;2023-07-20T08:50:25;5.28;;;2.90;;
16824;SDS011;8529;48.108;-1.706;2023-07-20T08:52:54;3.92;;;3.10;;
16824;SDS011;8529;48.108;-1.706;2023-07-20T08:55:24;5.32;;;3.15;;
16824;SDS011;8529;48.108;-1.706;2023-07-20T08:57:52;6.93;;;3.28;;
16824;SDS011;8529;48.108;-1.706;2023-07-20T09:00:23;5.38;;;4.07;;
16824;SDS011;8529;48.108;-1.706;2023-07-20T09:02:51;4.65;;;2.75;;
16824;SDS011;8529;48.108;-1.706;2023-07-20T09:05:20;5.05;;;3.20;;
16824;SDS011;8529;48.108;-1.706;2023-07-20T09:07:51;7.78;;;3.38;;
16824;SDS011;8529;48.108;-1.706;2023-07-20T09:10:19;4.38;;;2.90;;
16824;SDS011;8529;48.108;-1.706;2023-07-20T09:12:47;5.13;;;2.90;;
16824;SDS011;8529;48.108;-1.706;2023-07-20T09:15:14;3.55;;;2.50;;
16824;SDS011;8529;48.108;-1.706;2023-07-20T09:17:46;3.42;;;2.78;;
16824;SDS011;8529;48.108;-1.706;2023-07-20T09:20:14;3.83;;;2.78;;
16824;SDS011;8529;48.108;-1.706;2023-07-20T09:22:42;4.38;;;2.80;;
16824;SDS011;8529;48.108;-1.706;2023-07-20T09:25:11;4.25;;;2.80;;
16824;SDS011;8529;48.108;-1.706;2023-07-20T09:27:39;4.03;;;2.97;;
16824;SDS011;8529;48.108;-1.706;2023-07-20T09:30:07;3.80;;;2.72;;
16824;SDS011;8529;48.108;-1.706;2023-07-20T09:32:39;7.85;;;3.47;;
16824;SDS011;8529;48.108;-1.706;2023-07-20T09:35:14;4.18;;;2.67;;
16824;SDS011;8529;48.108;-1.706;2023-07-20T09:37:52;4.45;;;2.88;;
16824;SDS011;8529;48.108;-1.706;2023-07-20T09:40:20;5.30;;;3.00;;
16824;SDS011;8529;48.108;-1.706;2023-07-20T09:42:47;6.20;;;2.92;;
16824;SDS011;8529;48.108;-1.706;2023-07-20T09:45:17;3.33;;;2.63;;
16824;SDS011;8529;48.108;-1.706;2023-07-20T09:47:45;3.33;;;2.70;;
16824;SDS011;8529;48.108;-1.706;2023-07-20T09:50:12;4.47;;;2.25;;
16824;SDS011;8529;48.108;-1.706;2023-07-20T09:52:41;6.55;;;2.60;;
16824;SDS011;8529;48.108;-1.706;2023-07-20T09:55:09;3.88;;;2.45;;
16824;SDS011;8529;48.108;-1.706;2023-07-20T09:57:37;2.80;;;2.30;;
16824;SDS011;8529;48.108;-1.706;2023-07-20T10:00:05;2.50;;;2.30;;
16824;SDS011;8529;48.108;-1.706;2023-07-20T10:02:41;6.30;;;2.53;;
16824;SDS011;8529;48.108;-1.706;2023-07-20T10:05:11;4.13;;;2.47;;
16824;SDS011;8529;48.108;-1.706;2023-07-20T10:07:43;2.78;;;2.13;;
16824;SDS011;8529;48.108;-1.706;2023-07-20T10:10:12;2.78;;;2.10;;
16824;SDS011;8529;48.108;-1.706;2023-07-20T10:12:43;6.38;;;2.60;;
16824;SDS011;8529;48.108;-1.706;2023-07-20T10:15:15;7.30;;;2.50;;
16824;SDS011;8529;48.108;-1.706;2023-07-20T10:17:53;4.35;;;2.38;;
16824;SDS011;8529;48.108;-1.706;2023-07-20T10:20:27;2.63;;;1.98;;
16824;SDS011;8529;48.108;-1.706;2023-07-20T10:22:56;3.40;;;2.00;;
16824;SDS011;8529;48.108;-1.706;2023-07-20T10:25:24;3.65;;;2.20;;
16824;SDS011;8529;48.108;-1.706;2023-07-20T10:27:51;6.38;;;2.22;;
16824;SDS011;8529;48.108;-1.706;2023-07-20T10:30:18;4.13;;;2.20;;
16824;SDS011;8529;48.108;-1.706;2023-07-20T10:32:45;3.42;;;2.05;;
16824;SDS011;8529;48.108;-1.706;2023-07-20T10:35:13;3.60;;;1.98;;
16824;SDS011;8529;48.108;-1.706;2023-07-20T10:37:59;3.03;;;2.20;;
16824;SDS011;8529;48.108;-1.706;2023-07-20T10:40:27;3.13;;;2.58;;
16824;SDS011;8529;48.108;-1.706;2023-07-20T10:42:59;3.95;;;2.20;;
16824;SDS011;8529;48.108;-1.706;2023-07-20T10:45:41;4.68;;;2.22;;
16824;SDS011;8529;48.108;-1.706;2023-07-20T10:48:15;3.70;;;2.10;;
16824;SDS011;8529;48.108;-1.706;2023-07-20T10:50:44;3.55;;;2.08;;
16824;SDS011;8529;48.108;-1.706;2023-07-20T10:53:12;3.30;;;1.83;;
16824;SDS011;8529;48.108;-1.706;2023-07-20T10:55:41;2.25;;;2.05;;
16824;SDS011;8529;48.108;-1.706;2023-07-20T10:58:09;2.20;;;1.98;;
16824;SDS011;8529;48.108;-1.706;2023-07-20T11:00:37;10.30;;;2.72;;
16824;SDS011;8529;48.108;-1.706;2023-07-20T11:03:26;3.10;;;2.35;;
16824;SDS011;8529;48.108;-1.706;2023-07-20T11:05:54;5.72;;;2.33;;
16824;SDS011;8529;48.108;-1.706;2023-07-20T11:11:23;2.80;;;2.47;;
16824;SDS011;8529;48.108;-1.706;2023-07-20T11:13:58;2.78;;;2.17;;
16824;SDS011;8529;48.108;-1.706;2023-07-20T11:16:35;3.58;;;2.65;;
16824;SDS011;8529;48.108;-1.706;2023-07-20T11:19:13;3.03;;;2.20;;
16824;SDS011;8529;48.108;-1.706;2023-07-20T11:21:42;2.17;;;1.95;;
16824;SDS011;8529;48.108;-1.706;2023-07-20T11:24:10;2.55;;;2.35;;
16824;SDS011;8529;48.108;-1.706;2023-07-20T11:26:46;3.78;;;2.13;;
16824;SDS011;8529;48.108;-1.706;2023-07-20T11:29:15;2.28;;;1.90;;
16824;SDS011;8529;48.108;-1.706;2023-07-20T11:31:43;2.65;;;2.05;;
16824;SDS011;8529;48.108;-1.706;2023-07-20T11:34:12;3.38;;;2.33;;
16824;SDS011;8529;48.108;-1.706;2023-07-20T11:36:39;2.72;;;1.73;;
16824;SDS011;8529;48.108;-1.706;2023-07-20T11:39:08;2.83;;;1.90;;
16824;SDS011;8529;48.108;-1.706;2023-07-20T11:41:35;2.97;;;1.63;;
16824;SDS011;8529;48.108;-1.706;2023-07-20T11:44:05;2.50;;;1.60;;
16824;SDS011;8529;48.108;-1.706;2023-07-20T11:46:32;4.35;;;2.10;;
16824;SDS011;8529;48.108;-1.706;2023-07-20T11:49:00;2.83;;;1.73;;
16824;SDS011;8529;48.108;-1.706;2023-07-20T11:51:27;2.55;;;1.90;;
16824;SDS011;8529;48.108;-1.706;2023-07-20T11:53:55;7.15;;;2.42;;
16824;SDS011;8529;48.108;-1.706;2023-07-20T11:56:22;2.85;;;1.88;;
16824;SDS011;8529;48.108;-1.706;2023-07-20T11:58:50;3.10;;;1.85;;
16824;SDS011;8529;48.108;-1.706;2023-07-20T12:01:22;3.22;;;1.98;;
16824;SDS011;8529;48.108;-1.706;2023-07-20T12:03:49;5.13;;;2.15;;
16824;SDS011;8529;48.108;-1.706;2023-07-20T12:06:16;2.53;;;1.63;;
16824;SDS011;8529;48.108;-1.706;2023-07-20T12:08:43;2.83;;;1.55;;
16824;SDS011;8529;48.108;-1.706;2023-07-20T12:11:10;1.70;;;1.60;;
16824;SDS011;8529;48.108;-1.706;2023-07-20T12:13:38;3.42;;;1.50;;
16824;SDS011;8529;48.108;-1.706;2023-07-20T12:16:10;1.70;;;1.58;;
16824;SDS011;8529;48.108;-1.706;2023-07-20T12:18:39;3.13;;;1.77;;
16824;SDS011;8529;48.108;-1.706;2023-07-20T12:21:07;2.38;;;1.50;;
16824;SDS011;8529;48.108;-1.706;2023-07-20T12:23:35;2.63;;;1.63;;
16824;SDS011;8529;48.108;-1.706;2023-07-20T12:26:05;1.85;;;1.70;;
16824;SDS011;8529;48.108;-1.706;2023-07-20T12:28:35;2.65;;;1.20;;
16824;SDS011;8529;48.108;-1.706;2023-07-20T12:31:05;3.83;;;1.80;;
16824;SDS011;8529;48.108;-1.706;2023-07-20T12:33:32;2.47;;;1.50;;
16824;SDS011;8529;48.108;-1.706;2023-07-20T12:36:01;2.45;;;1.52;;
16824;SDS011;8529;48.108;-1.706;2023-07-20T12:38:28;2.75;;;1.67;;
16824;SDS011;8529;48.108;-1.706;2023-07-20T12:40:55;3.75;;;1.35;;
16824;SDS011;8529;48.108;-1.706;2023-07-20T12:43:23;1.73;;;1.52;;
16824;SDS011;8529;48.108;-1.706;2023-07-20T12:45:50;3.55;;;1.50;;
16824;SDS011;8529;48.108;-1.706;2023-07-20T12:48:18;2.67;;;1.58;;
16824;SDS011;8529;48.108;-1.706;2023-07-20T12:50:45;3.67;;;1.50;;
16824;SDS011;8529;48.108;-1.706;2023-07-20T12:53:13;1.60;;;1.50;;
16824;SDS011;8529;48.108;-1.706;2023-07-20T12:55:40;4.22;;;1.83;;
16824;SDS011;8529;48.108;-1.706;2023-07-20T12:58:07;2.15;;;1.80;;
16824;SDS011;8529;48.108;-1.706;2023-07-20T13:00:34;1.65;;;1.40;;
16824;SDS011;8529;48.108;-1.706;2023-07-20T13:03:01;2.15;;;1.92;;
16824;SDS011;8529;48.108;-1.706;2023-07-20T13:05:30;3.70;;;1.70;;
16824;SDS011;8529;48.108;-1.706;2023-07-20T13:07:58;1.45;;;1.13;;
16824;SDS011;8529;48.108;-1.706;2023-07-20T13:10:26;1.35;;;1.20;;
16824;SDS011;8529;48.108;-1.706;2023-07-20T13:12:54;2.35;;;1.40;;
16824;SDS011;8529;48.108;-1.706;2023-07-20T13:15:21;3.10;;;1.30;;
16824;SDS011;8529;48.108;-1.706;2023-07-20T13:17:50;1.48;;;1.38;;
16824;SDS011;8529;48.108;-1.706;2023-07-20T13:20:17;2.45;;;1.30;;
16824;SDS011;8529;48.108;-1.706;2023-07-20T13:22:44;2.03;;;1.40;;
16824;SDS011;8529;48.108;-1.706;2023-07-20T13:25:11;2.10;;;1.40;;
16824;SDS011;8529;48.108;-1.706;2023-07-20T13:27:39;2.45;;;1.33;;
16824;SDS011;8529;48.108;-1.706;2023-07-20T13:30:06;3.78;;;1.60;;
16824;SDS011;8529;48.108;-1.706;2023-07-20T13:32:36;1.27;;;1.17;;
16824;SDS011;8529;48.108;-1.706;2023-07-20T13:35:03;1.67;;;1.42;;
16824;SDS011;8529;48.108;-1.706;2023-07-20T13:37:31;3.30;;;1.50;;
16824;SDS011;8529;48.108;-1.706;2023-07-20T13:39:58;2.63;;;1.30;;
16824;SDS011;8529;48.108;-1.706;2023-07-20T13:42:25;3.78;;;1.20;;
16824;SDS011;8529;48.108;-1.706;2023-07-20T13:44:53;3.13;;;1.52;;
16824;SDS011;8529;48.108;-1.706;2023-07-20T13:47:20;2.22;;;1.40;;
16824;SDS011;8529;48.108;-1.706;2023-07-20T13:49:47;2.47;;;1.25;;
16824;SDS011;8529;48.108;-1.706;2023-07-20T13:52:14;3.05;;;1.70;;
16824;SDS011;8529;48.108;-1.706;2023-07-20T13:54:42;1.80;;;1.55;;
16824;SDS011;8529;48.108;-1.706;2023-07-20T13:57:09;2.72;;;1.42;;
16824;SDS011;8529;48.108;-1.706;2023-07-20T13:59:36;4.85;;;1.60;;
16824;SDS011;8529;48.108;-1.706;2023-07-20T14:02:04;1.73;;;1.52;;
16824;SDS011;8529;48.108;-1.706;2023-07-20T14:04:31;2.70;;;1.30;;
16824;SDS011;8529;48.108;-1.706;2023-07-20T14:06:58;1.95;;;1.67;;
16824;SDS011;8529;48.108;-1.706;2023-07-20T14:09:25;3.63;;;1.83;;
16824;SDS011;8529;48.108;-1.706;2023-07-20T14:11:52;1.90;;;1.30;;
16824;SDS011;8529;48.108;-1.706;2023-07-20T14:14:19;2.22;;;1.60;;
16824;SDS011;8529;48.108;-1.706;2023-07-20T14:16:46;5.03;;;3.17;;
16824;SDS011;8529;48.108;-1.706;2023-07-20T14:19:14;3.72;;;1.92;;
16824;SDS011;8529;48.108;-1.706;2023-07-20T14:21:41;5.43;;;2.22;;
16824;SDS011;8529;48.108;-1.706;2023-07-20T14:24:08;2.05;;;1.67;;
16824;SDS011;8529;48.108;-1.706;2023-07-20T14:26:35;2.85;;;1.60;;
16824;SDS011;8529;48.108;-1.706;2023-07-20T14:29:02;4.35;;;1.88;;
16824;SDS011;8529;48.108;-1.706;2023-07-20T14:31:28;2.53;;;1.73;;
16824;SDS011;8529;48.108;-1.706;2023-07-20T14:33:55;3.33;;;1.95;;
16824;SDS011;8529;48.108;-1.706;2023-07-20T14:36:23;2.10;;;1.92;;
16824;SDS011;8529;48.108;-1.706;2023-07-20T14:38:50;3.15;;;2.03;;
16824;SDS011;8529;48.108;-1.706;2023-07-20T14:41:17;4.32;;;1.63;;
16824;SDS011;8529;48.108;-1.706;2023-07-20T14:43:44;2.70;;;1.90;;
16824;SDS011;8529;48.108;-1.706;2023-07-20T14:46:11;3.90;;;1.75;;
16824;SDS011;8529;48.108;-1.706;2023-07-20T14:48:38;3.53;;;2.08;;
16824;SDS011;8529;48.108;-1.706;2023-07-20T14:51:05;1.98;;;1.80;;
16824;SDS011;8529;48.108;-1.706;2023-07-20T14:53:33;2.40;;;1.70;;
16824;SDS011;8529;48.108;-1.706;2023-07-20T14:56:00;2.80;;;1.65;;
16824;SDS011;8529;48.108;-1.706;2023-07-20T14:58:27;3.22;;;1.83;;